createdAt,value
2023-04-05T00:02:03.696Z,77.92
2023-04-05T00:04:35.713Z,77.90
2023-04-05T00:07:09.156Z,77.81
2023-04-05T00:09:38.884Z,78.26
2023-04-05T00:12:07.962Z,78.62
2023-04-05T00:14:36.675Z,78.92
2023-04-05T00:17:05.739Z,78.46
2023-04-05T00:19:36.145Z,79.40
2023-04-05T00:22:05.878Z,79.43
2023-04-05T00:24:35.067Z,79.93
2023-04-05T00:27:03.869Z,79.65
2023-04-05T00:29:32.943Z,79.82
2023-04-05T00:32:01.817Z,80.12
2023-04-05T00:34:30.895Z,80.39
2023-04-05T00:37:00.206Z,80.70
2023-04-05T00:39:29.420Z,81.07
2023-04-05T00:41:58.296Z,80.87
2023-04-05T00:44:27.777Z,80.42
2023-04-05T00:46:57.318Z,80.68
2023-04-05T00:49:26.413Z,80.47
2023-04-05T00:51:55.386Z,80.08
2023-04-05T00:54:26.621Z,80.38
2023-04-05T00:56:57.573Z,80.49
2023-04-05T00:59:32.450Z,80.46
2023-04-05T01:02:18.062Z,80.42
2023-04-05T01:04:57.263Z,80.06
2023-04-05T01:07:35.354Z,80.15
2023-04-05T01:10:08.430Z,80.26
2023-04-05T01:12:39.988Z,80.16
2023-04-05T01:15:09.724Z,79.90
2023-04-05T01:17:40.211Z,79.78
2023-04-05T01:20:12.761Z,80.07
2023-04-05T01:23:04.346Z,79.58
2023-04-05T01:25:37.941Z,79.54
2023-04-05T01:28:44.272Z,78.90
2023-04-05T01:31:28.347Z,79.03
2023-04-05T01:34:30.461Z,79.20
2023-04-05T01:37:04.695Z,79.47
2023-04-05T01:39:36.034Z,78.99
2023-04-05T01:42:07.028Z,78.85
2023-04-05T01:44:36.206Z,79.12
2023-04-05T01:47:05.094Z,78.82
2023-04-05T01:49:34.498Z,78.48
2023-04-05T01:52:03.459Z,78.31
2023-04-05T01:54:32.504Z,78.48
2023-04-05T01:57:01.481Z,78.25
2023-04-05T01:59:30.918Z,77.98
2023-04-05T02:02:01.493Z,77.99
2023-04-05T02:04:30.458Z,77.42
2023-04-05T02:06:59.436Z,77.42
2023-04-05T02:09:28.481Z,77.07
2023-04-05T02:11:57.616Z,76.90
2023-04-05T02:14:27.066Z,76.81
2023-04-05T02:16:57.494Z,76.80
2023-04-05T02:19:26.955Z,77.17
2023-04-05T02:21:55.984Z,76.48
2023-04-05T02:24:25.139Z,77.07
2023-04-05T02:26:54.038Z,76.49
2023-04-05T02:29:23.002Z,76.92
2023-04-05T02:31:51.935Z,76.27
2023-04-05T02:34:22.725Z,76.13
2023-04-05T02:36:55.085Z,77.06
2023-04-05T02:39:24.215Z,76.80
2023-04-05T02:41:53.060Z,77.47
2023-04-05T02:44:22.004Z,77.08
2023-04-05T02:46:54.834Z,77.22
2023-04-05T02:49:29.864Z,77.37
2023-04-05T02:52:01.906Z,76.95
2023-04-05T02:54:31.714Z,76.72
2023-04-05T02:57:04.357Z,77.41
2023-04-05T02:59:43.685Z,76.71
2023-04-05T03:02:14.576Z,77.13
2023-04-05T03:04:45.748Z,76.69
2023-04-05T03:07:19.586Z,77.96
2023-04-05T03:09:49.953Z,77.70
2023-04-05T03:12:19.944Z,77.63
2023-04-05T03:14:49.066Z,76.92
2023-04-05T03:17:22.240Z,76.63
2023-04-05T03:20:01.747Z,75.73
2023-04-05T03:22:31.170Z,75.29
2023-04-05T03:25:00.298Z,75.72
2023-04-05T03:27:30.092Z,75.67
2023-04-05T03:30:07.152Z,75.66
2023-04-05T03:32:40.837Z,75.84
2023-04-05T03:35:20.160Z,76.55
2023-04-05T03:37:49.538Z,76.11
2023-04-05T03:40:19.260Z,75.18
2023-04-05T03:42:49.816Z,75.23
2023-04-05T03:45:23.336Z,75.60
2023-04-05T03:47:55.984Z,75.11
2023-04-05T03:50:25.523Z,75.22
2023-04-05T03:52:54.737Z,74.57
2023-04-05T03:55:25.190Z,74.03
2023-04-05T03:57:55.124Z,74.92
2023-04-05T04:00:29.429Z,74.04
2023-04-05T04:03:11.697Z,74.12
2023-04-05T04:05:44.711Z,73.95
2023-04-05T04:08:14.498Z,74.33
2023-04-05T04:10:43.346Z,74.74
2023-04-05T04:13:25.904Z,73.83
2023-04-05T04:16:05.065Z,73.80
2023-04-05T04:18:55.330Z,72.81
2023-04-05T04:21:40.428Z,71.55
2023-04-05T04:24:21.602Z,70.66
2023-04-05T04:26:50.709Z,69.85
2023-04-05T04:29:47.595Z,71.19
2023-04-05T04:32:54.173Z,69.24
2023-04-05T04:35:41.817Z,69.77
2023-04-05T04:38:35.583Z,69.21
2023-04-05T04:41:21.031Z,67.10
2023-04-05T04:44:07.940Z,67.30
2023-04-05T04:47:04.134Z,67.99
2023-04-05T04:49:47.718Z,67.52
2023-04-05T04:52:16.895Z,67.30
2023-04-05T04:54:48.144Z,66.35
2023-04-05T04:57:17.278Z,65.98
2023-04-05T04:59:46.117Z,66.48
2023-04-05T05:02:15.071Z,63.65
2023-04-05T05:04:44.628Z,62.70
2023-04-05T05:07:13.757Z,61.44
2023-04-05T05:09:42.535Z,62.87
2023-04-05T05:12:11.615Z,61.41
2023-04-05T05:14:40.402Z,60.90
2023-04-05T05:17:09.579Z,60.65
2023-04-05T05:19:38.518Z,59.94
2023-04-05T05:22:07.520Z,59.22
2023-04-05T05:24:36.377Z,59.27
2023-04-05T05:27:05.556Z,58.18
2023-04-05T05:29:34.302Z,58.11
2023-04-05T05:32:03.775Z,56.41
2023-04-05T05:34:32.741Z,53.33
2023-04-05T05:37:01.856Z,57.48
2023-04-05T05:39:30.611Z,56.41
2023-04-05T05:41:59.954Z,58.26
2023-04-05T05:44:29.580Z,58.21
2023-04-05T05:46:59.861Z,57.55
2023-04-05T05:49:28.992Z,57.90
2023-04-05T05:51:58.180Z,56.33
2023-04-05T05:54:27.675Z,57.43
2023-04-05T05:56:56.824Z,55.95
2023-04-05T05:59:26.430Z,54.59
2023-04-05T06:01:56.621Z,52.68
2023-04-05T06:04:25.738Z,55.01
2023-04-05T06:06:55.650Z,53.21
2023-04-05T06:09:24.833Z,49.05
2023-04-05T06:11:56.742Z,49.47
2023-04-05T06:14:26.167Z,46.68
2023-04-05T06:16:54.922Z,44.24
2023-04-05T06:19:24.203Z,46.13
2023-04-05T06:21:58.588Z,46.08
2023-04-05T06:24:28.253Z,46.37
2023-04-05T06:26:57.755Z,47.16
2023-04-05T06:29:27.126Z,47.73
2023-04-05T06:31:56.570Z,47.98
2023-04-05T06:34:25.672Z,44.91
2023-04-05T06:40:54.531Z,43.92
2023-04-05T06:43:23.472Z,43.43
2023-04-05T06:45:52.434Z,46.03
2023-04-05T06:48:22.307Z,42.90
2023-04-05T06:51:06.557Z,42.46
2023-04-05T06:53:36.294Z,42.52
2023-04-05T06:56:05.556Z,42.03
2023-04-05T06:58:34.567Z,43.13
2023-04-05T07:01:05.228Z,41.38
2023-04-05T07:03:34.810Z,42.67
2023-04-05T07:06:03.957Z,40.74
2023-04-05T07:08:34.411Z,40.70
2023-04-05T07:11:03.532Z,40.90
2023-04-05T07:13:34.026Z,40.08
2023-04-05T07:16:04.384Z,39.63
2023-04-05T07:18:33.428Z,39.47
2023-04-05T07:21:02.642Z,38.39
2023-04-05T07:23:32.250Z,39.80
2023-04-05T07:26:06.699Z,38.58
2023-04-05T07:28:37.510Z,37.64
2023-04-05T07:31:08.145Z,39.21
2023-04-05T07:33:37.229Z,40.80
2023-04-05T07:36:06.526Z,40.49
2023-04-05T07:38:35.492Z,39.37
2023-04-05T07:41:06.989Z,40.62
2023-04-05T07:43:35.877Z,39.88
2023-04-05T07:46:08.127Z,38.92
2023-04-05T07:48:37.365Z,38.58
2023-04-05T07:51:08.226Z,37.70
2023-04-05T07:53:38.774Z,37.41
2023-04-05T07:56:12.953Z,38.15
2023-04-05T07:58:42.966Z,34.82
2023-04-05T08:01:14.896Z,38.70
2023-04-05T08:04:02.638Z,38.80
2023-04-05T08:06:32.213Z,38.91
2023-04-05T08:09:01.483Z,37.71
2023-04-05T08:11:30.585Z,37.79
2023-04-05T08:13:59.735Z,36.40
2023-04-05T08:16:29.580Z,37.13
2023-04-05T08:18:58.670Z,37.27
2023-04-05T08:21:28.494Z,38.77
2023-04-05T08:23:57.523Z,37.81
2023-04-05T08:26:26.917Z,38.81
2023-04-05T08:28:56.013Z,39.01
2023-04-05T08:31:25.197Z,37.89
2023-04-05T08:33:56.531Z,39.32
2023-04-05T08:36:25.625Z,38.79
2023-04-05T08:38:54.450Z,37.53
2023-04-05T08:41:25.544Z,38.97
2023-04-05T08:43:59.550Z,39.39
2023-04-05T08:46:30.475Z,39.14
2023-04-05T08:49:00.009Z,38.27
2023-04-05T08:51:29.301Z,38.96
2023-04-05T08:53:58.458Z,39.53
2023-04-05T08:56:31.319Z,40.12
2023-04-05T08:59:12.717Z,38.17
2023-04-05T09:01:49.965Z,38.00
2023-04-05T09:04:32.562Z,38.06
2023-04-05T09:07:04.201Z,39.07
2023-04-05T09:09:37.374Z,38.80
2023-04-05T09:12:08.669Z,39.17
2023-04-05T09:14:39.948Z,39.16
2023-04-05T09:17:09.710Z,39.38
2023-04-05T09:19:38.811Z,39.37
2023-04-05T09:22:10.111Z,38.93
2023-04-05T09:24:47.899Z,39.99
2023-04-05T09:27:22.097Z,39.81
2023-04-05T09:29:59.464Z,38.30
2023-04-05T09:32:32.148Z,37.38
2023-04-05T09:35:05.564Z,38.04
2023-04-05T09:37:38.217Z,39.15
2023-04-05T09:40:08.260Z,37.65
2023-04-05T09:42:47.854Z,37.64
2023-04-05T09:45:19.613Z,37.49
2023-04-05T09:47:58.501Z,37.95
2023-04-05T09:50:28.200Z,39.07
2023-04-05T09:53:16.790Z,38.47
2023-04-05T09:55:47.915Z,38.88
2023-04-05T09:58:24.219Z,37.83
2023-04-05T10:01:09.743Z,37.70
2023-04-05T10:03:51.777Z,38.83
2023-04-05T10:10:28.406Z,38.33
2023-04-05T10:12:59.146Z,38.19
2023-04-05T10:16:32.974Z,38.89
2023-04-05T10:19:04.032Z,39.07
2023-04-05T10:21:43.225Z,38.88
2023-04-05T10:24:15.083Z,38.67
2023-04-05T10:27:00.760Z,39.26
2023-04-05T10:29:48.496Z,38.80
2023-04-05T10:32:32.689Z,38.50
2023-04-05T10:35:24.245Z,38.30
2023-04-05T10:38:01.385Z,39.58
2023-04-05T10:40:34.268Z,38.00
2023-04-05T10:43:05.620Z,38.06
2023-04-05T10:45:36.465Z,39.09
2023-04-05T10:48:16.736Z,38.77
2023-04-05T10:50:48.567Z,38.69
2023-04-05T10:53:18.492Z,38.62
2023-04-05T10:55:48.073Z,38.52
2023-04-05T10:58:17.808Z,38.43
2023-04-05T11:00:49.663Z,39.26
2023-04-05T11:03:44.005Z,38.41
2023-04-05T11:06:31.577Z,38.56
2023-04-05T11:09:22.437Z,39.82
2023-04-05T11:11:53.557Z,39.77
2023-04-05T11:14:27.148Z,39.83
2023-04-05T11:16:59.170Z,39.90
2023-04-05T11:19:48.304Z,40.13
2023-04-05T11:22:28.187Z,39.41
2023-04-05T11:25:05.445Z,39.01
2023-04-05T11:27:38.352Z,40.06
2023-04-05T11:30:08.166Z,39.98
2023-04-05T11:32:44.639Z,40.28
2023-04-05T11:35:26.646Z,40.77
2023-04-05T11:38:09.979Z,41.39
2023-04-05T11:40:44.447Z,42.03
2023-04-05T11:43:13.949Z,41.51
2023-04-05T11:45:44.321Z,42.23
2023-04-05T11:48:15.492Z,42.16
2023-04-05T11:50:46.415Z,42.05
2023-04-05T11:53:19.626Z,42.50
2023-04-05T11:55:53.702Z,43.08
2023-04-05T11:58:26.872Z,43.41
2023-04-05T12:01:03.491Z,44.17
2023-04-05T12:03:32.984Z,44.57
2023-04-05T12:06:03.798Z,45.15
2023-04-05T12:08:51.502Z,44.69
2023-04-05T12:11:30.482Z,45.88
2023-04-05T12:14:03.367Z,45.79
2023-04-05T12:16:32.326Z,46.00
2023-04-05T12:19:02.180Z,46.33
2023-04-05T12:21:31.515Z,46.30
2023-04-05T12:24:00.444Z,45.89
2023-04-05T12:26:35.025Z,45.94
2023-04-05T12:29:06.126Z,46.47
2023-04-05T12:31:46.404Z,46.52
2023-04-05T12:34:16.524Z,46.03
2023-04-05T12:36:49.774Z,45.71
2023-04-05T12:39:19.043Z,45.66
2023-04-05T12:41:59.811Z,45.93
2023-04-05T12:44:32.643Z,46.11
2023-04-05T12:47:06.289Z,45.78
2023-04-05T12:49:41.467Z,45.67
2023-04-05T12:52:10.495Z,45.74
2023-04-05T12:54:40.360Z,46.24
2023-04-05T12:57:13.169Z,47.31
2023-04-05T12:59:42.096Z,47.61
2023-04-05T13:02:10.915Z,48.21
2023-04-05T13:04:39.931Z,47.95
2023-04-05T13:07:08.674Z,48.85
2023-04-05T13:09:37.964Z,49.07
2023-04-05T13:12:07.519Z,49.62
2023-04-05T13:14:36.507Z,49.85
2023-04-05T13:17:05.403Z,50.31
2023-04-05T13:19:34.411Z,50.08
2023-04-05T13:22:03.270Z,49.53
2023-04-05T13:24:32.345Z,49.54
2023-04-05T13:27:01.231Z,50.35
2023-04-05T13:29:30.243Z,50.46
2023-04-05T13:31:59.021Z,50.80
2023-04-05T13:34:28.313Z,51.20
2023-04-05T13:36:57.054Z,51.00
2023-04-05T13:39:26.095Z,51.28
2023-04-05T13:41:55.025Z,51.31
2023-04-05T13:44:24.208Z,50.43
2023-04-05T13:46:52.896Z,49.78
2023-04-05T13:49:22.514Z,49.33
2023-04-05T13:51:51.406Z,50.72
2023-04-05T13:54:20.382Z,51.73
2023-04-05T13:56:49.367Z,52.29
2023-04-05T13:59:20.343Z,52.95
2023-04-05T14:01:52.357Z,53.98
2023-04-05T14:04:21.781Z,56.04
2023-04-05T14:06:50.539Z,60.10
2023-04-05T14:09:19.610Z,61.08
2023-04-05T14:11:49.462Z,61.54
2023-04-05T14:14:18.537Z,62.31
2023-04-05T14:16:47.818Z,63.60
2023-04-05T14:19:17.345Z,60.93
2023-04-05T14:21:47.295Z,60.49
2023-04-05T14:24:16.358Z,60.17
2023-04-05T14:26:46.956Z,60.89
2023-04-05T14:29:20.106Z,63.14
2023-04-05T14:31:49.552Z,64.74
2023-04-05T14:34:18.452Z,64.92
2023-04-05T14:36:47.581Z,64.72
2023-04-05T14:39:16.466Z,65.54
2023-04-05T14:41:50.942Z,67.45
2023-04-05T14:44:20.054Z,68.23
2023-04-05T14:46:50.834Z,69.32
2023-04-05T14:49:19.958Z,70.46
2023-04-05T14:51:48.817Z,70.39
2023-04-05T14:54:17.998Z,70.42
2023-04-05T14:56:46.890Z,70.05
2023-04-05T14:59:15.921Z,68.49
2023-04-05T15:01:46.450Z,64.45
2023-04-05T15:04:15.687Z,62.81
2023-04-05T15:06:44.529Z,61.39
2023-04-05T15:09:13.502Z,60.69
2023-04-05T15:11:42.519Z,58.02
2023-04-05T15:14:18.224Z,58.37
2023-04-05T15:16:57.956Z,58.75
2023-04-05T15:19:26.982Z,55.96
2023-04-05T15:21:55.969Z,56.57
2023-04-05T15:24:26.530Z,52.93
2023-04-05T15:27:04.081Z,53.79
2023-04-05T15:30:04.130Z,53.25
2023-04-05T15:32:34.839Z,55.16
2023-04-05T15:35:04.864Z,54.74
2023-04-05T15:37:34.194Z,52.89
2023-04-05T15:40:03.863Z,53.47
2023-04-05T15:42:34.767Z,54.38
2023-04-05T15:45:03.829Z,54.24
2023-04-05T15:47:32.753Z,56.09
2023-04-05T15:50:01.983Z,56.76
2023-04-05T15:52:30.882Z,55.37
2023-04-05T15:54:59.819Z,57.81
2023-04-05T15:57:28.808Z,57.75
2023-04-05T15:59:57.876Z,56.72
2023-04-05T16:02:26.892Z,57.38
2023-04-05T16:04:56.072Z,57.44
2023-04-05T16:07:24.931Z,54.33
2023-04-05T16:09:53.951Z,54.61
2023-04-05T16:12:22.706Z,55.51
2023-04-05T16:14:51.656Z,54.20
2023-04-05T16:17:20.495Z,54.95
2023-04-05T16:19:49.619Z,54.71
2023-04-05T16:22:18.430Z,54.88
2023-04-05T16:24:47.390Z,55.99
2023-04-05T16:27:16.851Z,54.14
2023-04-05T16:29:46.213Z,54.79
2023-04-05T16:32:15.146Z,53.53
2023-04-05T16:34:44.296Z,52.75
2023-04-05T16:37:13.202Z,52.45
2023-04-05T16:39:42.297Z,54.39
2023-04-05T16:42:11.593Z,55.59
2023-04-05T16:44:40.646Z,55.49
2023-04-05T16:47:09.435Z,56.11
2023-04-05T16:49:38.578Z,56.34
2023-04-05T16:52:07.445Z,56.84
2023-04-05T16:54:36.463Z,57.48
2023-04-05T16:57:05.430Z,57.41
2023-04-05T16:59:34.432Z,58.01
2023-04-05T17:02:03.329Z,57.06
2023-04-05T17:04:32.494Z,57.32
2023-04-05T17:07:01.477Z,57.90
2023-04-05T17:09:30.616Z,57.85
2023-04-05T17:11:59.449Z,57.26
2023-04-05T17:14:29.079Z,56.54
2023-04-05T17:16:58.062Z,57.36
2023-04-05T17:19:27.654Z,56.91
2023-04-05T17:21:56.733Z,58.65
2023-04-05T17:24:28.335Z,60.35
2023-04-05T17:26:57.315Z,59.47
2023-04-05T17:29:26.217Z,59.90
2023-04-05T17:31:55.250Z,60.09
2023-04-05T17:34:24.489Z,59.52
2023-04-05T17:36:54.052Z,59.84
2023-04-05T17:39:22.990Z,59.83
2023-04-05T17:41:52.357Z,60.25
2023-04-05T17:44:21.164Z,60.88
2023-04-05T17:47:01.198Z,62.37
2023-04-05T17:49:38.430Z,63.10
2023-04-05T17:52:11.323Z,63.18
2023-04-05T17:54:40.852Z,62.15
2023-04-05T17:57:16.104Z,63.20
2023-04-05T17:59:45.715Z,63.79
2023-04-05T18:02:14.607Z,63.06
2023-04-05T18:04:43.865Z,62.66
2023-04-05T18:07:13.544Z,63.75
2023-04-05T18:09:43.290Z,64.43
2023-04-05T18:12:12.228Z,64.71
2023-04-05T18:14:41.233Z,63.13
2023-04-05T18:17:09.995Z,63.48
2023-04-05T18:19:39.222Z,64.44
2023-04-05T18:22:08.130Z,63.64
2023-04-05T18:24:37.074Z,64.47
2023-04-05T18:27:05.971Z,62.95
2023-04-05T18:29:38.953Z,62.40
2023-04-05T18:32:08.991Z,63.56
2023-04-05T18:34:38.219Z,64.84
2023-04-05T18:37:07.075Z,64.52
2023-04-05T18:39:36.431Z,64.35
2023-04-05T18:42:05.536Z,64.12
2023-04-05T18:44:34.626Z,65.09
2023-04-05T18:47:05.794Z,65.36
2023-04-05T18:49:35.064Z,65.68
2023-04-05T18:52:03.997Z,66.33
2023-04-05T18:54:33.064Z,66.07
2023-04-05T18:57:01.919Z,67.33
2023-04-05T18:59:30.961Z,69.04
2023-04-05T19:01:59.948Z,68.89
2023-04-05T19:04:29.183Z,68.07
2023-04-05T19:06:58.878Z,69.19
2023-04-05T19:09:28.493Z,69.03
2023-04-05T19:11:57.869Z,69.66
2023-04-05T19:14:26.883Z,69.97
2023-04-05T19:16:56.004Z,70.35
2023-04-05T19:19:25.029Z,69.57
2023-04-05T19:21:53.906Z,69.84
2023-04-05T19:24:23.058Z,70.65
2023-04-05T19:26:52.134Z,70.13
2023-04-05T19:29:21.448Z,70.27
2023-04-05T19:31:51.593Z,70.82
2023-04-05T19:34:20.696Z,71.17
2023-04-05T19:36:49.461Z,70.92
2023-04-05T19:39:18.504Z,70.27
2023-04-05T19:41:47.226Z,69.89
2023-04-05T19:44:47.529Z,71.44
2023-04-05T19:47:18.806Z,71.73
2023-04-05T19:49:49.103Z,72.90
2023-04-05T19:52:38.293Z,71.44
2023-04-05T19:55:28.274Z,71.33
2023-04-05T19:57:58.536Z,71.56
2023-04-05T20:00:53.758Z,71.73
2023-04-05T20:03:35.269Z,72.03
2023-04-05T20:06:10.456Z,71.94
2023-04-05T20:08:44.835Z,72.66
2023-04-05T20:11:19.471Z,71.95
2023-04-05T20:13:55.707Z,72.12
2023-04-05T20:16:35.863Z,72.43
2023-04-05T20:19:09.694Z,72.69
2023-04-05T20:21:40.862Z,72.39
2023-04-05T20:24:16.320Z,72.08
2023-04-05T20:26:48.649Z,72.17
2023-04-05T20:29:23.104Z,71.92
2023-04-05T20:31:54.728Z,71.25
2023-04-05T20:34:45.196Z,70.72
2023-04-05T20:37:15.492Z,71.34
2023-04-05T20:39:46.941Z,70.30
2023-04-05T20:42:17.671Z,70.33
2023-04-05T20:44:49.612Z,70.06
2023-04-05T20:47:21.215Z,70.36
2023-04-05T20:49:51.901Z,70.44
2023-04-05T20:52:23.196Z,70.86
2023-04-05T20:54:53.738Z,71.39
2023-04-05T20:57:24.969Z,71.17
2023-04-05T20:59:55.230Z,71.44
2023-04-05T21:02:26.334Z,70.98
2023-04-05T21:04:56.760Z,71.68
2023-04-05T21:07:28.527Z,71.52
2023-04-05T21:09:59.166Z,71.40
2023-04-05T21:12:30.348Z,72.09
2023-04-05T21:15:01.803Z,72.52
2023-04-05T21:17:32.561Z,72.26
2023-04-05T21:20:03.745Z,71.66
2023-04-05T21:22:35.465Z,71.68
2023-04-05T21:25:09.613Z,71.91
2023-04-05T21:27:40.847Z,72.88
2023-04-05T21:30:12.372Z,73.14
2023-04-05T21:32:43.599Z,73.90
2023-04-05T21:35:14.683Z,73.97
2023-04-05T21:37:45.798Z,74.18
2023-04-05T21:40:17.442Z,74.95
2023-04-05T21:42:48.001Z,74.93
2023-04-05T21:45:18.583Z,74.35
2023-04-05T21:47:49.826Z,75.44
2023-04-05T21:50:20.904Z,76.38
2023-04-05T21:52:51.917Z,77.03
2023-04-05T21:55:23.142Z,76.87
2023-04-05T21:57:53.384Z,75.91
2023-04-05T22:00:23.681Z,77.23
2023-04-05T22:02:53.935Z,77.17
2023-04-05T22:05:36.484Z,75.76
2023-04-05T22:08:09.952Z,75.80
2023-04-05T22:10:42.151Z,75.70
2023-04-05T22:13:13.221Z,75.78
2023-04-05T22:15:45.805Z,75.54
2023-04-05T22:18:16.895Z,75.31
2023-04-05T22:20:48.010Z,75.12
2023-04-05T22:23:19.036Z,75.31
2023-04-05T22:25:48.142Z,75.92
2023-04-05T22:28:17.149Z,75.76
2023-04-05T22:30:46.393Z,73.98
2023-04-05T22:33:15.336Z,73.31
2023-04-05T22:35:44.409Z,73.33
2023-04-05T22:38:13.261Z,72.78
2023-04-05T22:40:42.335Z,72.76
2023-04-05T22:43:11.206Z,72.99
2023-04-05T22:45:40.607Z,74.52
2023-04-05T22:48:09.565Z,74.72
2023-04-05T22:50:38.593Z,74.38
2023-04-05T22:53:07.738Z,74.48
2023-04-05T22:55:38.931Z,74.76
2023-04-05T22:58:08.824Z,75.51
2023-04-05T23:00:39.074Z,75.54
2023-04-05T23:03:08.215Z,76.06
2023-04-05T23:05:37.851Z,75.96
2023-04-05T23:08:06.949Z,76.43
2023-04-05T23:10:35.933Z,76.61
2023-04-05T23:13:05.163Z,76.85
2023-04-05T23:15:34.066Z,76.48
2023-04-05T23:18:03.386Z,76.08
2023-04-05T23:20:32.255Z,75.26
2023-04-05T23:23:02.549Z,75.15
2023-04-05T23:25:31.617Z,74.89
2023-04-05T23:28:00.741Z,74.79
2023-04-05T23:30:29.560Z,74.09
2023-04-05T23:32:58.634Z,74.77
2023-04-05T23:35:28.109Z,74.09
2023-04-05T23:37:57.194Z,73.47
2023-04-05T23:40:26.211Z,72.92
2023-04-05T23:42:55.292Z,75.21
2023-04-05T23:45:24.173Z,74.93
2023-04-05T23:47:53.467Z,75.85
2023-04-05T23:50:22.752Z,75.76
2023-04-05T23:52:52.258Z,75.96
2023-04-05T23:55:22.575Z,76.01
2023-04-05T23:57:52.860Z,76.58
